sensor_id;sensor_type;location;lat;lon;timestamp;P1;durP1;ratioP1;P2;durP2;ratioP2
37483;SDS011;23337;52.212;9.926;2022-10-26T00:01:14;12.17;;;4.90;;
37483;SDS011;23337;52.212;9.926;2022-10-26T00:03:41;6.40;;;4.13;;
37483;SDS011;23337;52.212;9.926;2022-10-26T00:06:09;7.60;;;4.63;;
37483;SDS011;23337;52.212;9.926;2022-10-26T00:08:35;5.67;;;4.33;;
37483;SDS011;23337;52.212;9.926;2022-10-26T00:11:02;7.63;;;4.40;;
37483;SDS011;23337;52.212;9.926;2022-10-26T00:13:28;9.03;;;5.23;;
37483;SDS011;23337;52.212;9.926;2022-10-26T00:15:54;9.37;;;4.53;;
37483;SDS011;23337;52.212;9.926;2022-10-26T00:18:20;6.93;;;4.87;;
37483;SDS011;23337;52.212;9.926;2022-10-26T00:20:46;5.73;;;4.50;;
37483;SDS011;23337;52.212;9.926;2022-10-26T00:23:12;9.07;;;4.20;;
37483;SDS011;23337;52.212;9.926;2022-10-26T00:25:38;7.63;;;4.70;;
37483;SDS011;23337;52.212;9.926;2022-10-26T00:28:04;6.80;;;4.47;;
37483;SDS011;23337;52.212;9.926;2022-10-26T00:30:30;5.03;;;3.83;;
37483;SDS011;23337;52.212;9.926;2022-10-26T00:32:56;10.23;;;4.50;;
37483;SDS011;23337;52.212;9.926;2022-10-26T00:35:21;5.23;;;3.80;;
37483;SDS011;23337;52.212;9.926;2022-10-26T00:37:47;5.87;;;4.00;;
37483;SDS011;23337;52.212;9.926;2022-10-26T00:40:13;5.17;;;3.60;;
37483;SDS011;23337;52.212;9.926;2022-10-26T00:42:39;4.40;;;3.50;;
37483;SDS011;23337;52.212;9.926;2022-10-26T00:45:13;5.80;;;3.40;;
37483;SDS011;23337;52.212;9.926;2022-10-26T00:47:45;4.80;;;3.57;;
37483;SDS011;23337;52.212;9.926;2022-10-26T00:50:23;5.10;;;3.60;;
37483;SDS011;23337;52.212;9.926;2022-10-26T00:52:50;4.43;;;3.63;;
37483;SDS011;23337;52.212;9.926;2022-10-26T00:55:17;7.30;;;3.17;;
37483;SDS011;23337;52.212;9.926;2022-10-26T00:57:45;3.93;;;3.37;;
37483;SDS011;23337;52.212;9.926;2022-10-26T01:00:11;5.33;;;3.30;;
37483;SDS011;23337;52.212;9.926;2022-10-26T01:02:37;6.87;;;3.00;;
37483;SDS011;23337;52.212;9.926;2022-10-26T01:05:03;3.67;;;3.33;;
37483;SDS011;23337;52.212;9.926;2022-10-26T01:07:30;4.87;;;3.30;;
37483;SDS011;23337;52.212;9.926;2022-10-26T01:09:56;6.47;;;4.07;;
37483;SDS011;23337;52.212;9.926;2022-10-26T01:12:22;4.30;;;2.97;;
37483;SDS011;23337;52.212;9.926;2022-10-26T01:14:48;6.37;;;3.60;;
37483;SDS011;23337;52.212;9.926;2022-10-26T01:20:05;6.47;;;3.50;;
37483;SDS011;23337;52.212;9.926;2022-10-26T01:22:39;6.70;;;3.60;;
37483;SDS011;23337;52.212;9.926;2022-10-26T01:27:51;5.47;;;3.73;;
37483;SDS011;23337;52.212;9.926;2022-10-26T01:30:35;4.70;;;3.33;;
37483;SDS011;23337;52.212;9.926;2022-10-26T01:33:15;3.90;;;3.40;;
37483;SDS011;23337;52.212;9.926;2022-10-26T01:41:02;6.40;;;3.30;;
37483;SDS011;23337;52.212;9.926;2022-10-26T01:43:30;8.57;;;3.73;;
37483;SDS011;23337;52.212;9.926;2022-10-26T01:45:58;5.07;;;2.87;;
37483;SDS011;23337;52.212;9.926;2022-10-26T01:48:25;7.80;;;3.70;;
37483;SDS011;23337;52.212;9.926;2022-10-26T01:50:52;3.40;;;3.10;;
37483;SDS011;23337;52.212;9.926;2022-10-26T01:53:19;5.97;;;3.20;;
37483;SDS011;23337;52.212;9.926;2022-10-26T01:55:52;7.03;;;3.63;;
37483;SDS011;23337;52.212;9.926;2022-10-26T02:00:53;5.40;;;3.67;;
37483;SDS011;23337;52.212;9.926;2022-10-26T02:03:25;3.80;;;2.50;;
37483;SDS011;23337;52.212;9.926;2022-10-26T02:08:25;5.13;;;3.10;;
37483;SDS011;23337;52.212;9.926;2022-10-26T02:18:37;7.30;;;2.97;;
37483;SDS011;23337;52.212;9.926;2022-10-26T02:21:06;5.43;;;3.07;;
37483;SDS011;23337;52.212;9.926;2022-10-26T02:23:34;4.67;;;2.50;;
37483;SDS011;23337;52.212;9.926;2022-10-26T02:26:01;4.60;;;2.60;;
37483;SDS011;23337;52.212;9.926;2022-10-26T02:28:33;5.83;;;3.07;;
37483;SDS011;23337;52.212;9.926;2022-10-26T02:31:00;7.83;;;2.90;;
37483;SDS011;23337;52.212;9.926;2022-10-26T02:33:27;3.27;;;2.77;;
37483;SDS011;23337;52.212;9.926;2022-10-26T02:35:54;5.53;;;2.97;;
37483;SDS011;23337;52.212;9.926;2022-10-26T02:38:20;4.97;;;2.87;;
37483;SDS011;23337;52.212;9.926;2022-10-26T02:40:47;5.67;;;3.73;;
37483;SDS011;23337;52.212;9.926;2022-10-26T02:43:15;6.97;;;2.60;;
37483;SDS011;23337;52.212;9.926;2022-10-26T02:45:47;4.63;;;2.97;;
37483;SDS011;23337;52.212;9.926;2022-10-26T02:48:14;4.83;;;2.67;;
37483;SDS011;23337;52.212;9.926;2022-10-26T02:50:42;4.40;;;2.90;;
37483;SDS011;23337;52.212;9.926;2022-10-26T02:55:39;3.30;;;3.10;;
37483;SDS011;23337;52.212;9.926;2022-10-26T02:58:11;7.30;;;2.97;;
37483;SDS011;23337;52.212;9.926;2022-10-26T03:00:39;3.20;;;2.77;;
37483;SDS011;23337;52.212;9.926;2022-10-26T03:03:07;6.63;;;3.40;;
37483;SDS011;23337;52.212;9.926;2022-10-26T03:05:33;5.27;;;3.53;;
37483;SDS011;23337;52.212;9.926;2022-10-26T03:08:00;4.73;;;2.57;;
37483;SDS011;23337;52.212;9.926;2022-10-26T03:10:27;5.77;;;2.97;;
37483;SDS011;23337;52.212;9.926;2022-10-26T03:12:53;3.43;;;3.07;;
37483;SDS011;23337;52.212;9.926;2022-10-26T03:15:19;4.83;;;2.93;;
37483;SDS011;23337;52.212;9.926;2022-10-26T03:17:45;6.63;;;2.67;;
37483;SDS011;23337;52.212;9.926;2022-10-26T03:20:11;3.30;;;2.70;;
37483;SDS011;23337;52.212;9.926;2022-10-26T03:22:37;4.63;;;2.90;;
37483;SDS011;23337;52.212;9.926;2022-10-26T03:25:03;6.53;;;3.07;;
37483;SDS011;23337;52.212;9.926;2022-10-26T03:27:29;5.60;;;2.77;;
37483;SDS011;23337;52.212;9.926;2022-10-26T03:29:55;7.10;;;3.43;;
37483;SDS011;23337;52.212;9.926;2022-10-26T03:32:21;4.40;;;3.53;;
37483;SDS011;23337;52.212;9.926;2022-10-26T03:34:47;5.10;;;3.23;;
37483;SDS011;23337;52.212;9.926;2022-10-26T03:37:13;5.90;;;3.17;;
37483;SDS011;23337;52.212;9.926;2022-10-26T03:39:39;3.97;;;2.57;;
37483;SDS011;23337;52.212;9.926;2022-10-26T03:42:05;3.07;;;2.60;;
37483;SDS011;23337;52.212;9.926;2022-10-26T03:44:31;3.50;;;2.90;;
37483;SDS011;23337;52.212;9.926;2022-10-26T03:46:57;4.70;;;2.93;;
37483;SDS011;23337;52.212;9.926;2022-10-26T03:49:23;4.10;;;3.03;;
37483;SDS011;23337;52.212;9.926;2022-10-26T03:51:49;4.67;;;2.40;;
37483;SDS011;23337;52.212;9.926;2022-10-26T03:54:15;5.70;;;3.13;;
37483;SDS011;23337;52.212;9.926;2022-10-26T03:56:41;3.87;;;2.90;;
37483;SDS011;23337;52.212;9.926;2022-10-26T03:59:07;6.90;;;2.50;;
37483;SDS011;23337;52.212;9.926;2022-10-26T04:01:32;5.77;;;3.10;;
37483;SDS011;23337;52.212;9.926;2022-10-26T04:03:58;4.63;;;3.77;;
37483;SDS011;23337;52.212;9.926;2022-10-26T04:06:24;4.60;;;2.83;;
37483;SDS011;23337;52.212;9.926;2022-10-26T04:08:50;4.50;;;3.57;;
37483;SDS011;23337;52.212;9.926;2022-10-26T04:11:22;5.83;;;3.57;;
37483;SDS011;23337;52.212;9.926;2022-10-26T04:13:48;7.07;;;3.33;;
37483;SDS011;23337;52.212;9.926;2022-10-26T04:16:13;5.37;;;3.70;;
37483;SDS011;23337;52.212;9.926;2022-10-26T04:18:39;6.90;;;3.93;;
37483;SDS011;23337;52.212;9.926;2022-10-26T04:21:05;6.23;;;4.03;;
37483;SDS011;23337;52.212;9.926;2022-10-26T04:23:31;3.93;;;3.37;;
37483;SDS011;23337;52.212;9.926;2022-10-26T04:25:57;3.80;;;2.67;;
37483;SDS011;23337;52.212;9.926;2022-10-26T04:28:23;5.37;;;3.07;;
37483;SDS011;23337;52.212;9.926;2022-10-26T04:30:49;4.17;;;2.97;;
37483;SDS011;23337;52.212;9.926;2022-10-26T04:33:15;4.70;;;3.50;;
37483;SDS011;23337;52.212;9.926;2022-10-26T04:35:41;6.60;;;2.73;;
37483;SDS011;23337;52.212;9.926;2022-10-26T04:38:08;4.57;;;2.27;;
37483;SDS011;23337;52.212;9.926;2022-10-26T04:40:34;3.87;;;2.30;;
37483;SDS011;23337;52.212;9.926;2022-10-26T04:43:00;2.73;;;2.33;;
37483;SDS011;23337;52.212;9.926;2022-10-26T04:45:26;4.10;;;2.73;;
37483;SDS011;23337;52.212;9.926;2022-10-26T04:47:58;3.97;;;2.87;;
37483;SDS011;23337;52.212;9.926;2022-10-26T04:50:24;4.37;;;2.77;;
37483;SDS011;23337;52.212;9.926;2022-10-26T04:52:51;4.53;;;3.30;;
37483;SDS011;23337;52.212;9.926;2022-10-26T04:55:17;3.87;;;3.53;;
37483;SDS011;23337;52.212;9.926;2022-10-26T04:57:43;4.50;;;3.10;;
37483;SDS011;23337;52.212;9.926;2022-10-26T05:00:10;4.77;;;3.20;;
37483;SDS011;23337;52.212;9.926;2022-10-26T05:02:36;5.20;;;3.07;;
37483;SDS011;23337;52.212;9.926;2022-10-26T05:05:02;4.93;;;3.80;;
37483;SDS011;23337;52.212;9.926;2022-10-26T05:07:28;5.93;;;3.20;;
37483;SDS011;23337;52.212;9.926;2022-10-26T05:09:53;2.97;;;2.67;;
37483;SDS011;23337;52.212;9.926;2022-10-26T05:12:19;4.53;;;3.37;;
37483;SDS011;23337;52.212;9.926;2022-10-26T05:14:45;5.90;;;4.00;;
37483;SDS011;23337;52.212;9.926;2022-10-26T05:17:11;7.27;;;4.30;;
37483;SDS011;23337;52.212;9.926;2022-10-26T05:19:37;7.87;;;4.23;;
37483;SDS011;23337;52.212;9.926;2022-10-26T05:22:03;5.13;;;3.30;;
37483;SDS011;23337;52.212;9.926;2022-10-26T05:24:29;4.70;;;3.40;;
37483;SDS011;23337;52.212;9.926;2022-10-26T05:26:55;5.37;;;3.43;;
37483;SDS011;23337;52.212;9.926;2022-10-26T05:29:21;6.70;;;3.57;;
37483;SDS011;23337;52.212;9.926;2022-10-26T05:31:47;3.77;;;3.27;;
37483;SDS011;23337;52.212;9.926;2022-10-26T05:34:13;4.17;;;3.03;;
37483;SDS011;23337;52.212;9.926;2022-10-26T05:36:39;5.13;;;3.07;;
37483;SDS011;23337;52.212;9.926;2022-10-26T05:39:05;5.17;;;3.03;;
37483;SDS011;23337;52.212;9.926;2022-10-26T05:41:31;2.53;;;2.20;;
37483;SDS011;23337;52.212;9.926;2022-10-26T05:43:57;4.13;;;2.83;;
37483;SDS011;23337;52.212;9.926;2022-10-26T05:46:23;4.00;;;2.83;;
37483;SDS011;23337;52.212;9.926;2022-10-26T05:48:49;8.17;;;3.13;;
37483;SDS011;23337;52.212;9.926;2022-10-26T05:51:15;4.47;;;2.47;;
37483;SDS011;23337;52.212;9.926;2022-10-26T05:53:40;2.47;;;2.07;;
37483;SDS011;23337;52.212;9.926;2022-10-26T05:56:17;3.23;;;1.87;;
37483;SDS011;23337;52.212;9.926;2022-10-26T05:58:45;7.60;;;3.17;;
37483;SDS011;23337;52.212;9.926;2022-10-26T06:01:18;5.83;;;3.40;;
37483;SDS011;23337;52.212;9.926;2022-10-26T06:03:54;3.13;;;2.83;;
37483;SDS011;23337;52.212;9.926;2022-10-26T06:06:26;4.40;;;3.00;;
37483;SDS011;23337;52.212;9.926;2022-10-26T06:08:53;5.50;;;2.67;;
37483;SDS011;23337;52.212;9.926;2022-10-26T06:11:19;4.87;;;2.80;;
37483;SDS011;23337;52.212;9.926;2022-10-26T06:13:46;4.27;;;2.70;;
37483;SDS011;23337;52.212;9.926;2022-10-26T06:18:59;3.50;;;2.87;;
37483;SDS011;23337;52.212;9.926;2022-10-26T06:24:18;3.53;;;2.60;;
37483;SDS011;23337;52.212;9.926;2022-10-26T06:26:52;6.10;;;2.37;;
37483;SDS011;23337;52.212;9.926;2022-10-26T06:29:27;2.63;;;2.10;;
37483;SDS011;23337;52.212;9.926;2022-10-26T06:31:56;3.73;;;2.37;;
37483;SDS011;23337;52.212;9.926;2022-10-26T06:34:26;5.00;;;2.53;;
37483;SDS011;23337;52.212;9.926;2022-10-26T06:36:53;3.67;;;2.50;;
37483;SDS011;23337;52.212;9.926;2022-10-26T06:39:22;4.87;;;2.60;;
37483;SDS011;23337;52.212;9.926;2022-10-26T06:41:50;4.87;;;2.53;;
37483;SDS011;23337;52.212;9.926;2022-10-26T06:44:22;2.60;;;2.40;;
37483;SDS011;23337;52.212;9.926;2022-10-26T06:46:51;5.07;;;2.50;;
37483;SDS011;23337;52.212;9.926;2022-10-26T06:49:26;5.27;;;2.23;;
37483;SDS011;23337;52.212;9.926;2022-10-26T06:54:41;4.87;;;2.40;;
37483;SDS011;23337;52.212;9.926;2022-10-26T06:57:10;4.80;;;2.27;;
37483;SDS011;23337;52.212;9.926;2022-10-26T07:02:10;4.53;;;2.40;;
37483;SDS011;23337;52.212;9.926;2022-10-26T07:04:36;4.90;;;2.13;;
37483;SDS011;23337;52.212;9.926;2022-10-26T07:07:02;4.90;;;2.60;;
37483;SDS011;23337;52.212;9.926;2022-10-26T07:09:28;4.63;;;3.10;;
37483;SDS011;23337;52.212;9.926;2022-10-26T07:11:54;4.90;;;2.23;;
37483;SDS011;23337;52.212;9.926;2022-10-26T07:14:20;6.83;;;2.87;;
37483;SDS011;23337;52.212;9.926;2022-10-26T07:16:46;4.33;;;2.00;;
37483;SDS011;23337;52.212;9.926;2022-10-26T07:19:12;7.67;;;2.50;;
37483;SDS011;23337;52.212;9.926;2022-10-26T07:21:38;4.23;;;1.80;;
37483;SDS011;23337;52.212;9.926;2022-10-26T07:24:04;4.27;;;2.07;;
37483;SDS011;23337;52.212;9.926;2022-10-26T07:26:30;3.03;;;2.27;;
37483;SDS011;23337;52.212;9.926;2022-10-26T07:28:55;6.13;;;2.17;;
37483;SDS011;23337;52.212;9.926;2022-10-26T07:31:21;4.53;;;2.17;;
37483;SDS011;23337;52.212;9.926;2022-10-26T07:33:47;3.73;;;2.27;;
37483;SDS011;23337;52.212;9.926;2022-10-26T07:36:13;3.83;;;1.90;;
37483;SDS011;23337;52.212;9.926;2022-10-26T07:38:39;5.17;;;2.07;;
37483;SDS011;23337;52.212;9.926;2022-10-26T07:41:05;4.87;;;2.07;;
37483;SDS011;23337;52.212;9.926;2022-10-26T07:43:31;5.77;;;2.63;;
37483;SDS011;23337;52.212;9.926;2022-10-26T07:45:57;6.17;;;2.13;;
37483;SDS011;23337;52.212;9.926;2022-10-26T07:48:23;4.03;;;2.10;;
37483;SDS011;23337;52.212;9.926;2022-10-26T07:50:49;5.70;;;1.93;;
37483;SDS011;23337;52.212;9.926;2022-10-26T07:53:15;2.60;;;2.17;;
37483;SDS011;23337;52.212;9.926;2022-10-26T07:55:41;5.77;;;2.17;;
37483;SDS011;23337;52.212;9.926;2022-10-26T07:58:07;4.53;;;1.90;;
37483;SDS011;23337;52.212;9.926;2022-10-26T08:00:33;4.53;;;2.13;;
37483;SDS011;23337;52.212;9.926;2022-10-26T08:02:59;3.23;;;1.93;;
37483;SDS011;23337;52.212;9.926;2022-10-26T08:05:26;5.67;;;2.30;;
37483;SDS011;23337;52.212;9.926;2022-10-26T08:07:52;5.80;;;2.50;;
37483;SDS011;23337;52.212;9.926;2022-10-26T08:10:18;3.97;;;2.00;;
37483;SDS011;23337;52.212;9.926;2022-10-26T08:12:44;3.97;;;1.90;;
37483;SDS011;23337;52.212;9.926;2022-10-26T08:15:10;6.07;;;2.57;;
37483;SDS011;23337;52.212;9.926;2022-10-26T08:17:36;6.13;;;2.17;;
37483;SDS011;23337;52.212;9.926;2022-10-26T08:20:02;5.53;;;2.37;;
37483;SDS011;23337;52.212;9.926;2022-10-26T08:22:29;5.83;;;1.77;;
37483;SDS011;23337;52.212;9.926;2022-10-26T08:24:55;5.60;;;2.20;;
37483;SDS011;23337;52.212;9.926;2022-10-26T08:27:21;5.03;;;2.00;;
37483;SDS011;23337;52.212;9.926;2022-10-26T08:29:46;6.83;;;2.23;;
37483;SDS011;23337;52.212;9.926;2022-10-26T08:32:12;5.00;;;2.00;;
37483;SDS011;23337;52.212;9.926;2022-10-26T08:34:38;7.03;;;1.77;;
37483;SDS011;23337;52.212;9.926;2022-10-26T08:37:04;8.17;;;2.77;;
37483;SDS011;23337;52.212;9.926;2022-10-26T08:39:30;4.30;;;1.80;;
37483;SDS011;23337;52.212;9.926;2022-10-26T08:42:13;6.00;;;2.37;;
37483;SDS011;23337;52.212;9.926;2022-10-26T08:44:45;5.50;;;1.87;;
37483;SDS011;23337;52.212;9.926;2022-10-26T08:49:45;6.07;;;1.80;;
37483;SDS011;23337;52.212;9.926;2022-10-26T08:52:13;6.27;;;2.40;;
37483;SDS011;23337;52.212;9.926;2022-10-26T08:54:53;4.67;;;1.87;;
37483;SDS011;23337;52.212;9.926;2022-10-26T08:57:24;6.47;;;2.40;;
37483;SDS011;23337;52.212;9.926;2022-10-26T08:59:56;9.40;;;2.73;;
37483;SDS011;23337;52.212;9.926;2022-10-26T09:02:22;8.67;;;2.37;;
37483;SDS011;23337;52.212;9.926;2022-10-26T09:04:48;4.90;;;2.17;;
37483;SDS011;23337;52.212;9.926;2022-10-26T09:09:44;4.53;;;2.00;;
37483;SDS011;23337;52.212;9.926;2022-10-26T09:12:27;5.17;;;2.07;;
37483;SDS011;23337;52.212;9.926;2022-10-26T09:17:47;3.30;;;1.80;;
37483;SDS011;23337;52.212;9.926;2022-10-26T09:23:01;4.83;;;1.80;;
37483;SDS011;23337;52.212;9.926;2022-10-26T09:25:38;4.77;;;1.40;;
37483;SDS011;23337;52.212;9.926;2022-10-26T09:28:04;4.07;;;1.57;;
37483;SDS011;23337;52.212;9.926;2022-10-26T09:30:35;5.20;;;1.70;;
37483;SDS011;23337;52.212;9.926;2022-10-26T09:33:03;3.50;;;1.43;;
37483;SDS011;23337;52.212;9.926;2022-10-26T09:35:42;3.87;;;1.43;;
37483;SDS011;23337;52.212;9.926;2022-10-26T09:38:12;4.37;;;1.27;;
37483;SDS011;23337;52.212;9.926;2022-10-26T09:40:41;2.80;;;1.27;;
37483;SDS011;23337;52.212;9.926;2022-10-26T09:43:16;6.53;;;1.50;;
37483;SDS011;23337;52.212;9.926;2022-10-26T09:45:50;5.67;;;1.30;;
37483;SDS011;23337;52.212;9.926;2022-10-26T09:48:28;4.70;;;1.70;;
37483;SDS011;23337;52.212;9.926;2022-10-26T09:50:55;6.83;;;2.20;;
37483;SDS011;23337;52.212;9.926;2022-10-26T09:53:23;4.37;;;1.60;;
37483;SDS011;23337;52.212;9.926;2022-10-26T09:55:49;5.50;;;1.50;;
37483;SDS011;23337;52.212;9.926;2022-10-26T09:58:19;4.40;;;1.57;;
37483;SDS011;23337;52.212;9.926;2022-10-26T10:00:46;4.70;;;1.63;;
37483;SDS011;23337;52.212;9.926;2022-10-26T10:03:16;2.97;;;1.43;;
37483;SDS011;23337;52.212;9.926;2022-10-26T10:05:43;3.53;;;1.60;;
37483;SDS011;23337;52.212;9.926;2022-10-26T10:08:12;2.97;;;1.63;;
37483;SDS011;23337;52.212;9.926;2022-10-26T10:10:43;2.43;;;0.90;;
37483;SDS011;23337;52.212;9.926;2022-10-26T10:13:18;3.47;;;1.33;;
37483;SDS011;23337;52.212;9.926;2022-10-26T10:16:19;2.87;;;1.40;;
37483;SDS011;23337;52.212;9.926;2022-10-26T10:18:38;4.97;;;1.60;;
37483;SDS011;23337;52.212;9.926;2022-10-26T10:21:04;4.80;;;1.43;;
37483;SDS011;23337;52.212;9.926;2022-10-26T10:23:35;3.43;;;1.23;;
37483;SDS011;23337;52.212;9.926;2022-10-26T10:26:06;4.43;;;1.50;;
37483;SDS011;23337;52.212;9.926;2022-10-26T10:28:33;7.53;;;1.83;;
37483;SDS011;23337;52.212;9.926;2022-10-26T10:31:00;5.43;;;1.57;;
37483;SDS011;23337;52.212;9.926;2022-10-26T10:33:59;5.47;;;1.20;;
37483;SDS011;23337;52.212;9.926;2022-10-26T10:36:20;1.97;;;1.03;;
37483;SDS011;23337;52.212;9.926;2022-10-26T10:38:47;2.37;;;1.27;;
37483;SDS011;23337;52.212;9.926;2022-10-26T10:43:52;4.00;;;1.83;;
37483;SDS011;23337;52.212;9.926;2022-10-26T10:46:21;6.10;;;2.00;;
37483;SDS011;23337;52.212;9.926;2022-10-26T10:48:59;10.03;;;2.37;;
37483;SDS011;23337;52.212;9.926;2022-10-26T10:51:26;5.87;;;1.90;;
37483;SDS011;23337;52.212;9.926;2022-10-26T10:53:54;3.30;;;1.50;;
37483;SDS011;23337;52.212;9.926;2022-10-26T10:56:34;3.57;;;1.83;;
37483;SDS011;23337;52.212;9.926;2022-10-26T11:01:51;2.53;;;1.30;;
37483;SDS011;23337;52.212;9.926;2022-10-26T11:06:54;7.13;;;1.70;;
37483;SDS011;23337;52.212;9.926;2022-10-26T11:09:25;4.20;;;1.10;;
37483;SDS011;23337;52.212;9.926;2022-10-26T11:11:53;3.87;;;1.40;;
37483;SDS011;23337;52.212;9.926;2022-10-26T11:16:47;2.57;;;1.30;;
37483;SDS011;23337;52.212;9.926;2022-10-26T11:19:19;4.80;;;1.40;;
37483;SDS011;23337;52.212;9.926;2022-10-26T11:21:52;3.87;;;1.00;;
37483;SDS011;23337;52.212;9.926;2022-10-26T11:24:28;3.20;;;1.13;;
37483;SDS011;23337;52.212;9.926;2022-10-26T11:26:58;2.70;;;1.10;;
37483;SDS011;23337;52.212;9.926;2022-10-26T11:29:28;4.57;;;1.30;;
37483;SDS011;23337;52.212;9.926;2022-10-26T11:31:57;4.13;;;1.70;;
37483;SDS011;23337;52.212;9.926;2022-10-26T11:34:30;2.47;;;0.87;;
37483;SDS011;23337;52.212;9.926;2022-10-26T11:37:01;2.77;;;0.90;;
37483;SDS011;23337;52.212;9.926;2022-10-26T11:39:32;4.13;;;1.43;;
37483;SDS011;23337;52.212;9.926;2022-10-26T11:42:05;1.20;;;1.10;;
37483;SDS011;23337;52.212;9.926;2022-10-26T11:44:36;2.80;;;1.37;;
37483;SDS011;23337;52.212;9.926;2022-10-26T11:47:17;3.03;;;1.30;;
37483;SDS011;23337;52.212;9.926;2022-10-26T11:49:57;13.70;;;1.73;;
37483;SDS011;23337;52.212;9.926;2022-10-26T11:52:27;3.00;;;1.30;;
37483;SDS011;23337;52.212;9.926;2022-10-26T11:54:55;1.63;;;1.03;;
37483;SDS011;23337;52.212;9.926;2022-10-26T11:57:24;2.87;;;1.10;;
37483;SDS011;23337;52.212;9.926;2022-10-26T11:59:58;2.30;;;0.80;;
37483;SDS011;23337;52.212;9.926;2022-10-26T12:02:25;2.00;;;1.10;;
37483;SDS011;23337;52.212;9.926;2022-10-26T12:04:57;4.23;;;1.40;;
37483;SDS011;23337;52.212;9.926;2022-10-26T12:07:26;3.43;;;1.20;;
37483;SDS011;23337;52.212;9.926;2022-10-26T12:09:53;1.53;;;0.80;;
37483;SDS011;23337;52.212;9.926;2022-10-26T12:12:25;2.73;;;0.90;;
37483;SDS011;23337;52.212;9.926;2022-10-26T12:14:58;2.73;;;0.70;;
37483;SDS011;23337;52.212;9.926;2022-10-26T12:17:38;1.13;;;1.00;;
37483;SDS011;23337;52.212;9.926;2022-10-26T12:22:33;3.10;;;1.17;;
37483;SDS011;23337;52.212;9.926;2022-10-26T12:30:21;2.23;;;1.00;;
37483;SDS011;23337;52.212;9.926;2022-10-26T12:32:48;2.43;;;0.63;;
37483;SDS011;23337;52.212;9.926;2022-10-26T12:38:00;2.67;;;1.00;;
37483;SDS011;23337;52.212;9.926;2022-10-26T12:42:56;3.23;;;1.30;;
37483;SDS011;23337;52.212;9.926;2022-10-26T12:45:22;3.70;;;0.97;;
37483;SDS011;23337;52.212;9.926;2022-10-26T12:57:44;3.13;;;1.30;;
37483;SDS011;23337;52.212;9.926;2022-10-26T13:00:12;6.17;;;1.20;;
37483;SDS011;23337;52.212;9.926;2022-10-26T13:08:02;1.97;;;1.30;;
37483;SDS011;23337;52.212;9.926;2022-10-26T13:10:29;1.87;;;1.00;;
37483;SDS011;23337;52.212;9.926;2022-10-26T13:12:55;2.67;;;1.50;;
37483;SDS011;23337;52.212;9.926;2022-10-26T13:15:26;4.53;;;0.83;;
37483;SDS011;23337;52.212;9.926;2022-10-26T13:17:57;3.53;;;1.10;;
37483;SDS011;23337;52.212;9.926;2022-10-26T13:20:23;3.37;;;1.47;;
37483;SDS011;23337;52.212;9.926;2022-10-26T13:22:50;2.03;;;0.70;;
37483;SDS011;23337;52.212;9.926;2022-10-26T13:25:23;3.10;;;1.03;;
37483;SDS011;23337;52.212;9.926;2022-10-26T13:27:56;3.60;;;1.10;;
37483;SDS011;23337;52.212;9.926;2022-10-26T13:32:57;1.73;;;0.93;;
37483;SDS011;23337;52.212;9.926;2022-10-26T13:35:24;6.07;;;1.10;;
37483;SDS011;23337;52.212;9.926;2022-10-26T13:37:52;1.43;;;0.80;;
37483;SDS011;23337;52.212;9.926;2022-10-26T13:40:27;1.43;;;0.93;;
37483;SDS011;23337;52.212;9.926;2022-10-26T13:42:57;3.87;;;1.30;;
37483;SDS011;23337;52.212;9.926;2022-10-26T13:45:45;3.73;;;2.00;;
37483;SDS011;23337;52.212;9.926;2022-10-26T13:48:19;3.87;;;1.03;;
37483;SDS011;23337;52.212;9.926;2022-10-26T13:50:50;1.60;;;0.90;;
37483;SDS011;23337;52.212;9.926;2022-10-26T13:56:04;3.77;;;1.33;;
37483;SDS011;23337;52.212;9.926;2022-10-26T13:58:40;2.23;;;1.20;;
37483;SDS011;23337;52.212;9.926;2022-10-26T14:03:36;2.43;;;1.13;;
37483;SDS011;23337;52.212;9.926;2022-10-26T14:06:07;2.83;;;1.50;;
37483;SDS011;23337;52.212;9.926;2022-10-26T14:08:39;3.47;;;1.10;;
37483;SDS011;23337;52.212;9.926;2022-10-26T14:11:05;3.37;;;1.23;;
37483;SDS011;23337;52.212;9.926;2022-10-26T14:13:32;2.33;;;0.80;;
37483;SDS011;23337;52.212;9.926;2022-10-26T14:15:58;3.90;;;1.40;;
37483;SDS011;23337;52.212;9.926;2022-10-26T14:18:25;2.50;;;1.30;;
37483;SDS011;23337;52.212;9.926;2022-10-26T14:23:24;3.23;;;1.20;;
37483;SDS011;23337;52.212;9.926;2022-10-26T14:25:54;2.83;;;1.90;;
37483;SDS011;23337;52.212;9.926;2022-10-26T14:28:21;4.43;;;1.30;;
37483;SDS011;23337;52.212;9.926;2022-10-26T14:30:47;2.93;;;1.20;;
37483;SDS011;23337;52.212;9.926;2022-10-26T14:33:18;3.47;;;1.13;;
37483;SDS011;23337;52.212;9.926;2022-10-26T14:35:45;2.27;;;1.00;;
37483;SDS011;23337;52.212;9.926;2022-10-26T14:38:18;3.13;;;1.50;;
37483;SDS011;23337;52.212;9.926;2022-10-26T14:40:46;3.70;;;1.60;;
37483;SDS011;23337;52.212;9.926;2022-10-26T14:43:17;4.10;;;1.17;;
37483;SDS011;23337;52.212;9.926;2022-10-26T14:45:47;3.20;;;1.30;;
37483;SDS011;23337;52.212;9.926;2022-10-26T14:48:21;3.17;;;1.10;;
37483;SDS011;23337;52.212;9.926;2022-10-26T14:51:01;3.53;;;1.60;;
37483;SDS011;23337;52.212;9.926;2022-10-26T14:53:33;2.80;;;1.27;;
37483;SDS011;23337;52.212;9.926;2022-10-26T14:56:00;2.33;;;1.50;;
37483;SDS011;23337;52.212;9.926;2022-10-26T14:58:31;5.03;;;1.30;;
37483;SDS011;23337;52.212;9.926;2022-10-26T15:01:22;4.37;;;1.30;;
37483;SDS011;23337;52.212;9.926;2022-10-26T15:03:53;4.00;;;1.27;;
37483;SDS011;23337;52.212;9.926;2022-10-26T15:06:29;3.70;;;1.30;;
37483;SDS011;23337;52.212;9.926;2022-10-26T15:08:56;1.03;;;0.93;;
37483;SDS011;23337;52.212;9.926;2022-10-26T15:11:24;3.60;;;1.67;;
37483;SDS011;23337;52.212;9.926;2022-10-26T15:13:50;7.77;;;1.70;;
37483;SDS011;23337;52.212;9.926;2022-10-26T15:16:18;3.27;;;1.30;;
37483;SDS011;23337;52.212;9.926;2022-10-26T15:18:46;5.77;;;1.73;;
37483;SDS011;23337;52.212;9.926;2022-10-26T15:21:20;6.30;;;1.67;;
37483;SDS011;23337;52.212;9.926;2022-10-26T15:23:47;3.03;;;1.27;;
37483;SDS011;23337;52.212;9.926;2022-10-26T15:26:13;2.77;;;1.23;;
37483;SDS011;23337;52.212;9.926;2022-10-26T15:28:39;4.93;;;1.60;;
37483;SDS011;23337;52.212;9.926;2022-10-26T15:33:35;4.90;;;1.37;;
37483;SDS011;23337;52.212;9.926;2022-10-26T15:36:18;4.43;;;1.40;;
37483;SDS011;23337;52.212;9.926;2022-10-26T15:38:44;5.50;;;1.47;;
37483;SDS011;23337;52.212;9.926;2022-10-26T15:41:29;3.20;;;1.53;;
37483;SDS011;23337;52.212;9.926;2022-10-26T15:43:56;3.17;;;1.30;;
37483;SDS011;23337;52.212;9.926;2022-10-26T15:46:27;3.50;;;1.80;;
37483;SDS011;23337;52.212;9.926;2022-10-26T15:48:54;3.87;;;1.60;;
37483;SDS011;23337;52.212;9.926;2022-10-26T15:51:21;3.57;;;1.60;;
37483;SDS011;23337;52.212;9.926;2022-10-26T15:53:46;4.70;;;1.50;;
37483;SDS011;23337;52.212;9.926;2022-10-26T15:56:16;4.73;;;1.57;;
37483;SDS011;23337;52.212;9.926;2022-10-26T15:58:43;4.93;;;1.40;;
37483;SDS011;23337;52.212;9.926;2022-10-26T16:01:16;3.37;;;1.60;;
37483;SDS011;23337;52.212;9.926;2022-10-26T16:03:42;2.00;;;1.53;;
37483;SDS011;23337;52.212;9.926;2022-10-26T16:06:11;6.33;;;1.60;;
37483;SDS011;23337;52.212;9.926;2022-10-26T16:08:38;4.10;;;1.33;;
37483;SDS011;23337;52.212;9.926;2022-10-26T16:11:04;3.67;;;1.80;;
37483;SDS011;23337;52.212;9.926;2022-10-26T16:13:30;2.33;;;1.30;;
37483;SDS011;23337;52.212;9.926;2022-10-26T16:15:56;3.27;;;1.70;;
37483;SDS011;23337;52.212;9.926;2022-10-26T16:18:22;4.57;;;1.70;;
37483;SDS011;23337;52.212;9.926;2022-10-26T16:20:48;3.43;;;1.73;;
37483;SDS011;23337;52.212;9.926;2022-10-26T16:23:14;6.97;;;2.47;;
37483;SDS011;23337;52.212;9.926;2022-10-26T16:25:41;3.27;;;1.80;;
37483;SDS011;23337;52.212;9.926;2022-10-26T16:28:08;4.27;;;1.90;;
37483;SDS011;23337;52.212;9.926;2022-10-26T16:30:35;4.30;;;2.33;;
37483;SDS011;23337;52.212;9.926;2022-10-26T16:33:01;4.83;;;1.67;;
37483;SDS011;23337;52.212;9.926;2022-10-26T16:35:27;5.93;;;2.00;;